createdAt,value
2018-12-17T00:02:26.038Z,23.43
2018-12-17T00:04:54.140Z,23.40
2018-12-17T00:07:22.311Z,25.30
2018-12-17T00:09:50.463Z,24.37
2018-12-17T00:12:19.435Z,26.00
2018-12-17T00:14:47.555Z,23.57
2018-12-17T00:17:15.865Z,26.07
2018-12-17T00:19:43.963Z,24.03
2018-12-17T00:22:12.103Z,21.90
2018-12-17T00:24:40.704Z,21.53
2018-12-17T00:27:09.011Z,23.60
2018-12-17T00:29:37.210Z,24.83
2018-12-17T00:32:05.564Z,23.83
2018-12-17T00:34:33.922Z,23.97
2018-12-17T00:37:02.189Z,23.73
2018-12-17T00:39:30.671Z,23.10
2018-12-17T00:41:58.860Z,22.97
2018-12-17T00:44:27.241Z,22.87
2018-12-17T00:46:56.175Z,23.43
2018-12-17T00:49:24.338Z,23.63
2018-12-17T00:51:52.523Z,23.27
2018-12-17T00:54:20.642Z,23.40
2018-12-17T00:56:48.953Z,25.83
2018-12-17T00:59:17.304Z,25.33
2018-12-17T01:01:45.452Z,22.60
2018-12-17T01:04:13.802Z,24.90
2018-12-17T01:06:42.006Z,24.37
2018-12-17T01:09:10.304Z,24.53
2018-12-17T01:11:38.528Z,24.97
2018-12-17T01:14:06.840Z,24.93
2018-12-17T01:16:34.988Z,25.20
2018-12-17T01:19:03.252Z,25.53
2018-12-17T01:21:31.987Z,25.80
2018-12-17T01:24:00.313Z,24.53
2018-12-17T01:26:29.119Z,22.83
2018-12-17T01:28:57.327Z,25.33
2018-12-17T01:31:25.470Z,24.63
2018-12-17T01:33:53.882Z,25.77
2018-12-17T01:36:22.009Z,26.20
2018-12-17T01:38:50.120Z,23.87
2018-12-17T01:41:18.289Z,24.87
2018-12-17T01:43:46.390Z,25.13
2018-12-17T01:46:14.569Z,21.20
2018-12-17T01:48:42.976Z,22.40
2018-12-17T01:51:11.107Z,24.83
2018-12-17T01:53:39.874Z,23.50
2018-12-17T01:56:08.007Z,23.07
2018-12-17T01:58:36.322Z,24.80
2018-12-17T02:01:04.832Z,24.70
2018-12-17T02:03:33.306Z,25.37
2018-12-17T02:06:01.690Z,22.60
2018-12-17T02:08:30.612Z,23.13
2018-12-17T02:10:59.027Z,22.33
2018-12-17T02:13:27.122Z,20.90
2018-12-17T02:15:55.489Z,21.17
2018-12-17T02:18:23.869Z,22.30
2018-12-17T02:20:52.029Z,20.93
2018-12-17T02:23:20.319Z,22.70
2018-12-17T02:25:48.677Z,21.83
2018-12-17T02:28:16.867Z,20.93
2018-12-17T02:30:45.167Z,21.17
2018-12-17T02:33:14.260Z,20.33
2018-12-17T02:35:42.614Z,22.17
2018-12-17T02:38:10.777Z,21.13
2018-12-17T02:40:39.045Z,23.73
2018-12-17T02:43:07.175Z,24.33
2018-12-17T02:45:35.323Z,24.07
2018-12-17T02:48:03.665Z,23.17
2018-12-17T02:50:31.813Z,24.30
2018-12-17T02:52:59.917Z,24.23
2018-12-17T02:55:28.343Z,26.03
2018-12-17T02:57:56.485Z,22.30
2018-12-17T03:00:24.829Z,24.37
2018-12-17T03:02:52.990Z,23.23
2018-12-17T03:05:21.779Z,26.57
2018-12-17T03:07:56.647Z,24.50
2018-12-17T03:10:25.065Z,25.53
2018-12-17T03:12:53.258Z,23.33
2018-12-17T03:15:21.657Z,24.37
2018-12-17T03:17:50.053Z,22.93
2018-12-17T03:20:18.434Z,22.63
2018-12-17T03:22:46.594Z,23.83
2018-12-17T03:25:14.817Z,23.30
2018-12-17T03:27:43.063Z,22.50
2018-12-17T03:30:11.296Z,23.90
2018-12-17T03:32:39.370Z,22.03
2018-12-17T03:35:08.039Z,22.43
2018-12-17T03:37:37.175Z,19.97
2018-12-17T03:40:06.132Z,20.40
2018-12-17T03:42:34.200Z,21.73
2018-12-17T03:45:03.576Z,19.43
2018-12-17T03:47:31.901Z,21.80
2018-12-17T03:50:00.208Z,20.10
2018-12-17T03:52:29.310Z,20.50
2018-12-17T03:54:57.711Z,20.13
2018-12-17T03:57:27.114Z,17.33
2018-12-17T03:59:55.396Z,19.43
2018-12-17T04:02:23.550Z,18.50
2018-12-17T04:04:52.586Z,21.10
2018-12-17T04:07:20.955Z,21.17
2018-12-17T04:09:49.934Z,21.70
2018-12-17T04:12:19.116Z,20.27
2018-12-17T04:14:48.041Z,20.33
2018-12-17T04:17:16.310Z,18.67
2018-12-17T04:19:45.104Z,18.57
2018-12-17T04:22:13.294Z,20.10
2018-12-17T04:24:42.239Z,21.80
2018-12-17T04:27:10.509Z,21.57
2018-12-17T04:29:38.874Z,22.63
2018-12-17T04:32:07.197Z,18.87
2018-12-17T04:34:35.292Z,20.30
2018-12-17T04:37:03.400Z,21.37
2018-12-17T04:39:31.547Z,22.23
2018-12-17T04:41:59.866Z,20.20
2018-12-17T04:44:27.968Z,23.10
2018-12-17T04:46:56.137Z,22.57
2018-12-17T04:49:24.311Z,21.67
2018-12-17T04:51:53.099Z,32.03
2018-12-17T04:54:21.203Z,22.77
2018-12-17T04:56:49.465Z,22.43
2018-12-17T04:59:17.637Z,21.83
2018-12-17T05:01:45.915Z,21.67
2018-12-17T05:04:14.105Z,21.00
2018-12-17T05:06:43.311Z,23.37
2018-12-17T05:09:11.432Z,20.87
2018-12-17T05:11:39.786Z,21.40
2018-12-17T05:14:08.095Z,20.33
2018-12-17T05:16:36.376Z,19.80
2018-12-17T05:19:06.117Z,23.60
2018-12-17T05:21:34.350Z,22.23
2018-12-17T05:24:02.459Z,22.50
2018-12-17T05:26:30.804Z,19.43
2018-12-17T05:28:59.079Z,19.87
2018-12-17T05:31:27.181Z,21.07
2018-12-17T05:33:55.332Z,23.23
2018-12-17T05:36:23.876Z,23.13
2018-12-17T05:38:52.159Z,22.13
2018-12-17T05:41:21.485Z,23.83
2018-12-17T05:43:49.794Z,19.57
2018-12-17T05:46:18.157Z,23.97
2018-12-17T05:48:46.498Z,21.63
2018-12-17T05:51:14.798Z,22.33
2018-12-17T05:53:42.902Z,20.80
2018-12-17T05:56:11.164Z,21.73
2018-12-17T05:58:39.541Z,23.27
2018-12-17T06:01:07.911Z,22.77
2018-12-17T06:03:36.266Z,25.87
2018-12-17T06:06:05.160Z,24.67
2018-12-17T06:08:33.467Z,24.10
2018-12-17T06:11:01.626Z,23.47
2018-12-17T06:13:29.790Z,21.67
2018-12-17T06:15:58.480Z,22.33
2018-12-17T06:18:26.738Z,21.27
2018-12-17T06:20:55.155Z,24.03
2018-12-17T06:23:23.290Z,23.63
2018-12-17T06:25:51.467Z,22.43
2018-12-17T06:28:19.824Z,25.37
2018-12-17T06:30:48.020Z,22.30
2018-12-17T06:33:16.194Z,23.37
2018-12-17T06:35:44.334Z,25.10
2018-12-17T06:38:12.990Z,21.87
2018-12-17T06:40:41.425Z,24.50
2018-12-17T06:43:09.531Z,23.87
2018-12-17T06:45:38.011Z,24.93
2018-12-17T06:48:06.179Z,24.00
2018-12-17T06:50:34.325Z,26.97
2018-12-17T06:53:02.483Z,24.60
2018-12-17T06:55:30.621Z,23.17
2018-12-17T06:57:59.203Z,22.27
2018-12-17T07:00:27.485Z,23.83
2018-12-17T07:02:55.725Z,23.47
2018-12-17T07:05:23.946Z,21.87
2018-12-17T07:07:52.113Z,24.23
2018-12-17T07:10:20.389Z,21.07
2018-12-17T07:12:48.663Z,21.37
2018-12-17T07:15:16.798Z,24.77
2018-12-17T07:17:45.016Z,20.60
2018-12-17T07:20:13.251Z,22.70
2018-12-17T07:22:41.397Z,23.13
2018-12-17T07:25:09.640Z,24.53
2018-12-17T07:27:37.952Z,22.90
2018-12-17T07:30:07.377Z,25.27
2018-12-17T07:32:36.037Z,22.67
2018-12-17T07:35:04.902Z,21.90
2018-12-17T07:37:32.998Z,27.57
2018-12-17T07:40:01.130Z,24.23
2018-12-17T07:42:29.258Z,22.10
2018-12-17T07:44:57.397Z,20.67
2018-12-17T07:47:25.616Z,20.17
2018-12-17T07:49:53.968Z,21.37
2018-12-17T07:52:22.090Z,23.03
2018-12-17T07:54:50.208Z,19.33
2018-12-17T07:57:19.363Z,21.37
2018-12-17T07:59:47.502Z,19.90
2018-12-17T08:02:15.654Z,19.47
2018-12-17T08:04:43.925Z,20.23
2018-12-17T08:07:13.016Z,18.80
2018-12-17T08:09:41.355Z,22.33
2018-12-17T08:12:09.614Z,19.87
2018-12-17T08:14:37.703Z,20.07
2018-12-17T08:17:05.878Z,20.20
2018-12-17T08:19:34.207Z,17.33
2018-12-17T08:22:02.471Z,21.73
2018-12-17T08:24:31.270Z,20.47
2018-12-17T08:26:59.688Z,15.77
2018-12-17T08:29:27.975Z,19.00
2018-12-17T08:31:56.095Z,17.57
2018-12-17T08:34:24.187Z,18.27
2018-12-17T08:36:52.267Z,16.60
2018-12-17T08:39:20.619Z,18.43
2018-12-17T08:41:48.690Z,21.43
2018-12-17T08:44:16.910Z,15.63
2018-12-17T08:46:45.096Z,17.53
2018-12-17T08:49:13.303Z,18.67
2018-12-17T08:51:41.508Z,18.23
2018-12-17T08:54:09.664Z,20.33
2018-12-17T08:56:37.856Z,15.57
2018-12-17T08:59:06.072Z,15.43
2018-12-17T09:01:34.167Z,13.57
2018-12-17T09:04:02.338Z,16.90
2018-12-17T09:06:30.493Z,15.90
2018-12-17T09:08:58.601Z,15.80
2018-12-17T09:11:27.268Z,15.27
2018-12-17T09:13:55.693Z,13.83
2018-12-17T09:16:23.906Z,12.77
2018-12-17T09:18:52.868Z,12.07
2018-12-17T09:21:21.071Z,16.87
2018-12-17T09:23:49.276Z,15.13
2018-12-17T09:26:17.451Z,13.93
2018-12-17T09:28:45.668Z,10.73
2018-12-17T09:31:13.808Z,11.63
2018-12-17T09:33:42.010Z,11.77
2018-12-17T09:36:10.206Z,11.07
2018-12-17T09:38:38.491Z,11.27
2018-12-17T09:41:06.634Z,9.80
2018-12-17T09:43:34.775Z,11.67
2018-12-17T09:46:03.182Z,11.60
2018-12-17T09:48:31.344Z,11.60
2018-12-17T09:50:59.588Z,10.63
2018-12-17T09:53:27.680Z,11.53
2018-12-17T09:55:55.919Z,10.77
2018-12-17T09:58:24.139Z,10.97
2018-12-17T10:00:53.424Z,12.00
2018-12-17T10:03:21.631Z,10.90
2018-12-17T10:05:49.953Z,11.00
2018-12-17T10:08:18.133Z,10.10
2018-12-17T10:10:47.975Z,11.43
2018-12-17T10:13:16.051Z,11.67
2018-12-17T10:15:44.209Z,8.53
2018-12-17T10:18:12.515Z,9.50
2018-12-17T10:20:40.643Z,12.93
2018-12-17T10:23:08.957Z,9.87
2018-12-17T10:25:37.147Z,9.70
2018-12-17T10:28:05.363Z,12.93
2018-12-17T10:30:33.529Z,9.60
2018-12-17T10:33:01.653Z,9.60
2018-12-17T10:35:29.850Z,9.63
2018-12-17T10:37:57.991Z,12.13
2018-12-17T10:40:26.176Z,8.27
2018-12-17T10:42:54.373Z,9.50
2018-12-17T10:45:23.367Z,9.50
2018-12-17T10:47:51.512Z,9.50
2018-12-17T10:50:19.645Z,9.87
2018-12-17T10:52:47.761Z,7.57
2018-12-17T10:55:15.994Z,8.83
2018-12-17T10:57:44.174Z,9.43
2018-12-17T11:00:17.686Z,13.40
2018-12-17T11:02:46.081Z,9.33
2018-12-17T11:05:15.943Z,9.07
2018-12-17T11:07:44.174Z,9.63
2018-12-17T11:10:12.531Z,10.43
2018-12-17T11:12:40.743Z,11.47
2018-12-17T11:15:10.745Z,10.20
2018-12-17T11:17:40.101Z,12.37
2018-12-17T11:20:10.014Z,9.87
2018-12-17T11:22:38.217Z,8.43
2018-12-17T11:25:07.239Z,7.87
2018-12-17T11:27:35.548Z,6.70
2018-12-17T11:30:06.484Z,7.57
2018-12-17T11:32:34.665Z,9.00
2018-12-17T11:35:03.365Z,6.10
2018-12-17T11:37:31.692Z,6.77
2018-12-17T11:39:59.843Z,5.13
2018-12-17T11:42:28.630Z,4.73
2018-12-17T11:44:56.924Z,7.73
2018-12-17T11:47:25.257Z,6.37
2018-12-17T11:49:53.367Z,4.93
2018-12-17T11:52:21.590Z,5.47
2018-12-17T11:54:49.760Z,6.53
2018-12-17T11:58:23.074Z,6.07
2018-12-17T12:00:57.074Z,5.13
2018-12-17T12:03:26.127Z,6.10
2018-12-17T12:05:54.465Z,5.43
2018-12-17T12:08:22.615Z,12.23
2018-12-17T12:10:50.828Z,5.50
2018-12-17T12:13:18.989Z,7.13
2018-12-17T12:15:47.112Z,6.83
2018-12-17T12:18:15.369Z,7.27
2018-12-17T12:20:43.668Z,7.30
2018-12-17T12:23:11.888Z,9.83
2018-12-17T12:25:40.025Z,7.23
2018-12-17T12:28:08.167Z,6.30
2018-12-17T12:30:36.477Z,6.87
2018-12-17T12:33:05.022Z,7.37
2018-12-17T12:35:33.199Z,6.33
2018-12-17T12:38:01.361Z,7.10
2018-12-17T12:40:29.539Z,6.10
2018-12-17T12:42:57.697Z,5.97
2018-12-17T12:45:25.823Z,7.37
2018-12-17T12:47:54.687Z,6.13
2018-12-17T12:50:22.909Z,5.87
2018-12-17T12:52:51.087Z,6.60
2018-12-17T12:55:19.257Z,7.10
2018-12-17T12:57:47.447Z,7.63
2018-12-17T13:00:16.671Z,7.70
2018-12-17T13:02:44.921Z,5.90
2018-12-17T13:05:13.163Z,5.63
2018-12-17T13:07:41.479Z,5.43
2018-12-17T13:10:10.808Z,4.70
2018-12-17T13:12:39.179Z,7.40
2018-12-17T13:15:09.131Z,6.13
2018-12-17T13:17:37.910Z,5.13
2018-12-17T13:20:08.251Z,6.53
2018-12-17T13:22:36.568Z,6.00
2018-12-17T13:25:07.894Z,5.47
2018-12-17T13:27:36.080Z,5.80
2018-12-17T13:30:07.509Z,5.50
2018-12-17T13:32:35.683Z,5.83
2018-12-17T13:35:04.469Z,8.23
2018-12-17T13:37:32.682Z,5.80
2018-12-17T13:40:00.848Z,6.73
2018-12-17T13:42:29.015Z,5.10
2018-12-17T13:44:57.760Z,5.10
2018-12-17T13:47:25.954Z,4.87
2018-12-17T13:49:54.134Z,5.37
2018-12-17T13:52:28.034Z,7.43
2018-12-17T13:54:57.102Z,5.63
2018-12-17T13:57:25.519Z,6.70
2018-12-17T13:59:53.631Z,6.63
2018-12-17T14:02:21.823Z,5.80
2018-12-17T14:04:50.033Z,5.13
2018-12-17T14:07:18.184Z,5.80
2018-12-17T14:09:51.890Z,9.40
2018-12-17T14:12:20.215Z,7.10
2018-12-17T14:14:48.369Z,5.60
2018-12-17T14:17:22.156Z,5.00
2018-12-17T14:20:58.652Z,6.03
2018-12-17T14:23:26.921Z,4.90
2018-12-17T14:25:55.155Z,5.13
2018-12-17T14:28:23.395Z,6.10
2018-12-17T14:30:51.603Z,8.30
2018-12-17T14:33:19.730Z,9.20
2018-12-17T14:35:53.616Z,4.57
2018-12-17T14:38:21.776Z,6.77
2018-12-17T14:40:50.066Z,7.90
2018-12-17T14:43:18.214Z,6.93
2018-12-17T14:45:46.406Z,4.60
2018-12-17T14:48:14.656Z,5.67
2018-12-17T14:50:42.785Z,6.57
2018-12-17T14:53:10.966Z,5.20
2018-12-17T14:55:39.104Z,7.53
2018-12-17T14:58:07.281Z,5.70
2018-12-17T15:00:35.471Z,5.10
2018-12-17T15:03:03.905Z,5.03
2018-12-17T15:05:33.030Z,4.37
2018-12-17T15:08:01.204Z,4.60
2018-12-17T15:10:29.612Z,4.37
2018-12-17T15:12:57.792Z,4.63
2018-12-17T15:15:25.947Z,5.90
2018-12-17T15:17:54.231Z,4.50
2018-12-17T15:20:22.379Z,4.00
2018-12-17T15:22:50.474Z,3.73
2018-12-17T15:25:18.742Z,5.50
2018-12-17T15:27:47.011Z,4.27
2018-12-17T15:30:15.330Z,4.93
2018-12-17T15:32:43.528Z,4.20
2018-12-17T15:35:11.653Z,7.77
2018-12-17T15:37:39.867Z,5.30
2018-12-17T15:40:08.245Z,5.07
2018-12-17T15:42:40.881Z,5.07
2018-12-17T15:45:08.302Z,3.87
2018-12-17T15:47:36.521Z,3.20
2018-12-17T15:50:05.065Z,6.00
2018-12-17T15:52:33.264Z,3.87
2018-12-17T15:55:02.440Z,3.20
2018-12-17T15:57:31.027Z,3.83
2018-12-17T15:59:59.185Z,4.10
2018-12-17T16:02:27.290Z,6.10
2018-12-17T16:04:55.588Z,5.40
2018-12-17T16:07:24.316Z,6.27
2018-12-17T16:09:55.409Z,5.67
2018-12-17T16:12:24.071Z,4.93
2018-12-17T16:14:52.221Z,4.57
2018-12-17T16:17:20.341Z,7.60
2018-12-17T16:19:48.455Z,7.50
2018-12-17T16:22:16.774Z,5.37
2018-12-17T16:24:44.931Z,4.97
2018-12-17T16:27:19.166Z,5.10
2018-12-17T16:29:43.531Z,4.93
2018-12-17T16:32:11.739Z,4.83
2018-12-17T16:34:39.926Z,5.43
2018-12-17T16:37:08.307Z,5.77
2018-12-17T16:39:36.508Z,6.60
2018-12-17T16:42:04.645Z,6.53
2018-12-17T16:44:32.774Z,5.43
2018-12-17T16:47:01.050Z,6.03
2018-12-17T16:49:29.299Z,5.77
2018-12-17T16:51:57.422Z,6.83
2018-12-17T16:54:25.596Z,7.47
2018-12-17T16:56:53.821Z,7.90
2018-12-17T16:59:21.946Z,6.87
2018-12-17T17:01:50.058Z,7.07
2018-12-17T17:04:18.194Z,5.93
2018-12-17T17:06:46.411Z,6.10
2018-12-17T17:09:15.228Z,6.00
2018-12-17T17:11:43.422Z,7.10
2018-12-17T17:14:11.633Z,7.77
2018-12-17T17:16:39.936Z,9.17
2018-12-17T17:19:08.074Z,7.53
2018-12-17T17:21:36.376Z,9.20
2018-12-17T17:24:04.665Z,7.67
2018-12-17T17:26:33.012Z,9.67
2018-12-17T17:29:01.244Z,8.87
2018-12-17T17:31:29.600Z,8.17
2018-12-17T17:33:58.809Z,9.03
2018-12-17T17:36:27.192Z,8.40
2018-12-17T17:38:55.594Z,8.53
2018-12-17T17:41:23.893Z,7.43
2018-12-17T17:43:52.189Z,7.77
2018-12-17T17:46:21.301Z,9.57
2018-12-17T17:48:49.706Z,8.47
2018-12-17T17:51:17.927Z,10.00
2018-12-17T17:53:46.261Z,8.17
2018-12-17T17:56:14.696Z,8.40
2018-12-17T17:58:43.195Z,7.70
2018-12-17T18:01:11.425Z,8.60
2018-12-17T18:03:39.573Z,12.53
2018-12-17T18:06:07.783Z,10.00
2018-12-17T18:08:35.953Z,7.50
2018-12-17T18:11:04.292Z,9.00
2018-12-17T18:13:32.433Z,8.20
2018-12-17T18:16:00.752Z,11.20
2018-12-17T18:18:28.945Z,10.80
2018-12-17T18:20:57.144Z,10.23
2018-12-17T18:23:25.353Z,9.73
2018-12-17T18:25:53.524Z,8.17
2018-12-17T18:28:21.764Z,10.20
2018-12-17T18:30:50.264Z,10.90
2018-12-17T18:33:18.527Z,9.00
2018-12-17T18:35:46.888Z,9.20
2018-12-17T18:38:15.073Z,9.80
2018-12-17T18:40:43.340Z,9.07
2018-12-17T18:43:11.774Z,9.93
2018-12-17T18:45:39.980Z,8.03
2018-12-17T18:48:08.202Z,8.80
2018-12-17T18:50:36.340Z,8.57
2018-12-17T18:53:04.579Z,8.40
2018-12-17T18:55:32.726Z,9.50
2018-12-17T18:58:00.988Z,7.73
2018-12-17T19:00:29.221Z,7.30
2018-12-17T19:02:57.404Z,9.93
2018-12-17T19:05:25.588Z,9.23
2018-12-17T19:07:54.078Z,7.33
2018-12-17T19:10:22.248Z,7.47
2018-12-17T19:12:50.476Z,8.30
2018-12-17T19:15:18.806Z,10.00
2018-12-17T19:17:47.057Z,9.43
2018-12-17T19:20:15.234Z,8.90
2018-12-17T19:22:44.116Z,8.27
2018-12-17T19:25:12.450Z,9.23
2018-12-17T19:27:40.670Z,8.77
2018-12-17T19:30:09.884Z,10.07
2018-12-17T19:32:40.324Z,10.07
2018-12-17T19:35:08.454Z,10.17
2018-12-17T19:37:36.602Z,10.37
2018-12-17T19:40:06.148Z,8.30
2018-12-17T19:42:34.331Z,9.37
2018-12-17T19:45:02.572Z,9.47
2018-12-17T19:47:30.795Z,8.83
2018-12-17T19:49:59.520Z,9.10
2018-12-17T19:52:27.689Z,9.57
2018-12-17T19:54:55.821Z,10.70
2018-12-17T19:57:24.156Z,10.60
2018-12-17T19:59:52.297Z,9.47
2018-12-17T20:02:20.451Z,9.40
2018-12-17T20:04:48.648Z,11.43
2018-12-17T20:07:16.821Z,9.77
2018-12-17T20:09:44.920Z,11.17
2018-12-17T20:12:13.206Z,9.27
2018-12-17T20:14:41.356Z,10.03
2018-12-17T20:17:09.508Z,11.47
2018-12-17T20:19:37.696Z,9.17
2018-12-17T20:22:05.827Z,9.77
2018-12-17T20:24:33.994Z,11.83
2018-12-17T20:27:02.124Z,10.73
2018-12-17T20:29:31.184Z,10.63
2018-12-17T20:32:00.246Z,8.43
2018-12-17T20:34:28.462Z,9.77
2018-12-17T20:36:56.631Z,11.93
2018-12-17T20:39:24.839Z,9.30
2018-12-17T20:41:53.068Z,10.80
2018-12-17T20:44:21.208Z,10.10
2018-12-17T20:46:49.560Z,9.90
2018-12-17T20:49:17.769Z,9.10
2018-12-17T20:51:46.356Z,10.63
2018-12-17T20:57:00.416Z,11.07
2018-12-17T20:59:28.611Z,10.33
2018-12-17T21:01:56.860Z,9.97
2018-12-17T21:04:25.061Z,9.53
2018-12-17T21:06:53.316Z,10.53
2018-12-17T21:09:21.457Z,9.60
2018-12-17T21:11:49.579Z,9.73
2018-12-17T21:14:23.451Z,11.97
2018-12-17T21:16:47.900Z,11.07
2018-12-17T21:19:16.144Z,10.83
2018-12-17T21:21:44.396Z,10.00
2018-12-17T21:24:12.647Z,10.53
2018-12-17T21:26:41.406Z,11.17
2018-12-17T21:29:09.567Z,11.33
2018-12-17T21:31:37.849Z,9.73
2018-12-17T21:34:05.985Z,9.40
2018-12-17T21:36:34.124Z,10.47
2018-12-17T21:39:02.553Z,10.67
2018-12-17T21:41:30.705Z,9.47
2018-12-17T21:43:58.869Z,10.80
2018-12-17T21:46:29.858Z,10.50
2018-12-17T21:48:58.007Z,10.10
2018-12-17T21:51:26.126Z,11.03
2018-12-17T21:53:54.282Z,11.03
2018-12-17T21:56:22.439Z,10.17
2018-12-17T21:58:50.705Z,10.77
2018-12-17T22:01:18.987Z,11.07
2018-12-17T22:03:47.119Z,10.40
2018-12-17T22:06:15.992Z,10.43
2018-12-17T22:08:44.273Z,12.70
2018-12-17T22:11:12.573Z,10.30
2018-12-17T22:13:40.688Z,9.57
2018-12-17T22:16:08.783Z,9.53
2018-12-17T22:18:37.003Z,9.87
2018-12-17T22:21:05.432Z,9.37
2018-12-17T22:23:33.717Z,8.80
2018-12-17T22:26:01.892Z,8.83
2018-12-17T22:28:30.208Z,9.00
2018-12-17T22:30:58.521Z,9.67
2018-12-17T22:33:26.834Z,9.50
2018-12-17T22:35:54.967Z,9.83
2018-12-17T22:38:23.139Z,8.80
2018-12-17T22:40:51.281Z,10.43
2018-12-17T22:43:19.483Z,8.97
2018-12-17T22:45:48.165Z,9.40
2018-12-17T22:48:16.550Z,9.70
2018-12-17T22:50:44.724Z,9.60
2018-12-17T22:53:12.829Z,10.37
2018-12-17T22:55:41.024Z,9.10
2018-12-17T22:58:09.326Z,9.53
2018-12-17T23:00:37.766Z,11.20
2018-12-17T23:03:06.072Z,10.80
2018-12-17T23:05:34.564Z,9.13
2018-12-17T23:08:02.678Z,9.80
2018-12-17T23:10:48.054Z,10.13
2018-12-17T23:13:33.603Z,10.77
2018-12-17T23:16:19.092Z,9.43
2018-12-17T23:18:45.586Z,9.70
2018-12-17T23:21:14.126Z,9.53
2018-12-17T23:23:42.560Z,9.17
2018-12-17T23:26:10.930Z,9.70
2018-12-17T23:28:39.394Z,9.13
2018-12-17T23:31:08.679Z,7.90
2018-12-17T23:33:36.898Z,9.67
2018-12-17T23:36:07.117Z,9.73
2018-12-17T23:38:35.592Z,11.67
2018-12-17T23:41:03.782Z,9.53
2018-12-17T23:43:31.973Z,8.67
2018-12-17T23:46:00.161Z,9.37
2018-12-17T23:48:28.597Z,10.27
2018-12-17T23:50:56.768Z,9.53
2018-12-17T23:53:24.872Z,7.90
2018-12-17T23:55:53.000Z,7.60
2018-12-17T23:58:21.345Z,9.67
